createdAt,value
2023-04-23T00:00:22.397Z,20.05
2023-04-23T00:02:53.895Z,16.00
2023-04-23T00:05:21.691Z,16.02
2023-04-23T00:07:49.390Z,16.60
2023-04-23T00:10:17.001Z,15.50
2023-04-23T00:12:44.708Z,21.25
2023-04-23T00:15:13.093Z,14.68
2023-04-23T00:17:40.551Z,15.48
2023-04-23T00:20:09.451Z,13.75
2023-04-23T00:22:36.766Z,14.73
2023-04-23T00:25:04.311Z,13.23
2023-04-23T00:27:31.860Z,14.80
2023-04-23T00:29:59.186Z,16.77
2023-04-23T00:32:36.161Z,14.48
2023-04-23T00:35:04.439Z,15.38
2023-04-23T00:37:33.381Z,11.35
2023-04-23T00:40:01.237Z,15.45
2023-04-23T00:42:32.351Z,18.63
2023-04-23T00:45:01.410Z,11.63
2023-04-23T00:47:31.875Z,12.82
2023-04-23T00:50:00.219Z,14.52
2023-04-23T00:52:29.440Z,10.40
2023-04-23T00:54:57.366Z,15.93
2023-04-23T00:57:25.111Z,12.02
2023-04-23T00:59:52.621Z,11.25
2023-04-23T01:02:20.167Z,11.43
2023-04-23T01:04:51.488Z,11.90
2023-04-23T01:07:19.059Z,13.20
2023-04-23T01:09:46.859Z,13.50
2023-04-23T01:12:14.522Z,9.98
2023-04-23T01:14:42.164Z,12.38
2023-04-23T01:17:10.352Z,11.07
2023-04-23T01:19:38.060Z,12.52
2023-04-23T01:22:14.651Z,10.68
2023-04-23T01:24:43.354Z,12.20
2023-04-23T01:27:11.446Z,11.10
2023-04-23T01:29:39.910Z,11.70
2023-04-23T01:32:08.149Z,11.32
2023-04-23T01:34:39.284Z,12.23
2023-04-23T01:37:07.662Z,10.25
2023-04-23T01:39:36.356Z,10.65
2023-04-23T01:42:07.294Z,12.25
2023-04-23T01:44:34.990Z,10.93
2023-04-23T01:47:03.113Z,10.27
2023-04-23T01:49:32.447Z,12.68
2023-04-23T01:52:00.037Z,12.05
2023-04-23T01:54:27.706Z,12.55
2023-04-23T01:56:56.059Z,13.18
2023-04-23T01:59:23.770Z,9.25
2023-04-23T02:01:51.380Z,12.30
2023-04-23T02:04:19.255Z,7.88
2023-04-23T02:06:49.285Z,11.05
2023-04-23T02:09:16.999Z,12.48
2023-04-23T02:11:44.416Z,10.82
2023-04-23T02:14:11.868Z,12.70
2023-04-23T02:16:40.169Z,11.82
2023-04-23T02:19:07.663Z,12.73
2023-04-23T02:21:35.048Z,10.50
2023-04-23T02:24:02.520Z,7.40
2023-04-23T02:26:30.613Z,12.68
2023-04-23T02:28:57.981Z,8.88
2023-04-23T02:31:25.427Z,12.90
2023-04-23T02:33:52.829Z,9.68
2023-04-23T02:36:21.727Z,10.13
2023-04-23T02:38:51.424Z,8.10
2023-04-23T02:41:18.994Z,11.50
2023-04-23T02:43:47.143Z,9.90
2023-04-23T02:46:14.677Z,12.02
2023-04-23T02:48:42.293Z,10.15
2023-04-23T02:51:12.224Z,10.55
2023-04-23T02:53:39.766Z,9.30
2023-04-23T02:56:07.599Z,7.88
2023-04-23T02:58:35.489Z,10.05
2023-04-23T03:01:03.000Z,12.98
2023-04-23T03:03:32.502Z,13.27
2023-04-23T03:06:02.921Z,10.80
2023-04-23T03:08:30.575Z,12.38
2023-04-23T03:10:58.023Z,11.57
2023-04-23T03:13:26.354Z,8.65
2023-04-23T03:15:54.550Z,13.80
2023-04-23T03:18:21.971Z,12.80
2023-04-23T03:20:52.962Z,17.40
2023-04-23T03:23:20.409Z,10.85
2023-04-23T03:25:48.745Z,12.23
2023-04-23T03:28:16.328Z,12.63
2023-04-23T03:30:45.076Z,12.25
2023-04-23T03:33:12.686Z,13.02
2023-04-23T03:35:40.657Z,13.43
2023-04-23T03:38:12.627Z,14.50
2023-04-23T03:40:41.286Z,15.43
2023-04-23T03:43:10.131Z,18.55
2023-04-23T03:45:57.423Z,14.43
2023-04-23T03:48:25.187Z,15.23
2023-04-23T03:50:52.707Z,16.88
2023-04-23T03:53:33.020Z,18.13
2023-04-23T03:56:20.264Z,16.10
2023-04-23T03:58:57.737Z,20.05
2023-04-23T04:01:25.172Z,19.05
2023-04-23T04:03:53.027Z,15.77
2023-04-23T04:06:20.787Z,16.05
2023-04-23T04:08:48.180Z,15.10
2023-04-23T04:11:15.639Z,12.32
2023-04-23T04:13:58.915Z,13.90
2023-04-23T04:16:26.747Z,14.05
2023-04-23T04:19:14.323Z,12.20
2023-04-23T04:21:41.674Z,14.20
2023-04-23T04:24:11.726Z,14.55
2023-04-23T04:26:40.016Z,13.07
2023-04-23T04:29:07.419Z,11.40
2023-04-23T04:31:35.114Z,17.05
2023-04-23T04:34:03.034Z,13.52
2023-04-23T04:36:30.637Z,11.95
2023-04-23T04:38:59.097Z,17.83
2023-04-23T04:41:26.480Z,13.00
2023-04-23T04:43:54.942Z,9.82
2023-04-23T04:46:22.378Z,11.30
2023-04-23T04:48:49.745Z,12.82
2023-04-23T04:51:17.177Z,12.23
2023-04-23T04:53:44.576Z,11.40
2023-04-23T04:56:11.900Z,12.32
2023-04-23T04:58:39.241Z,17.08
2023-04-23T05:01:06.824Z,11.88
2023-04-23T05:03:34.325Z,9.98
2023-04-23T05:06:01.830Z,12.38
2023-04-23T05:08:29.404Z,10.93
2023-04-23T05:10:56.787Z,11.57
2023-04-23T05:13:24.170Z,10.20
2023-04-23T05:15:51.602Z,13.07
2023-04-23T05:18:19.428Z,11.70
2023-04-23T05:20:46.849Z,13.05
2023-04-23T05:23:14.708Z,9.93
2023-04-23T05:25:42.097Z,11.82
2023-04-23T05:28:09.919Z,17.45
2023-04-23T05:30:37.352Z,10.52
2023-04-23T05:33:04.872Z,14.70
2023-04-23T05:35:32.316Z,13.57
2023-04-23T05:38:00.220Z,14.40
2023-04-23T05:40:27.524Z,12.85
2023-04-23T05:42:55.085Z,12.65
2023-04-23T05:45:22.645Z,13.57
2023-04-23T05:47:50.050Z,11.95
2023-04-23T05:50:17.749Z,12.57
2023-04-23T05:52:45.163Z,8.57
2023-04-23T05:55:12.663Z,11.65
2023-04-23T05:57:40.066Z,8.82
2023-04-23T06:00:12.034Z,12.82
2023-04-23T06:02:42.198Z,10.18
2023-04-23T06:05:10.385Z,9.38
2023-04-23T06:07:38.022Z,6.93
2023-04-23T06:10:06.014Z,7.32
2023-04-23T06:12:33.663Z,8.50
2023-04-23T06:15:01.175Z,6.50
2023-04-23T06:17:30.910Z,4.40
2023-04-23T06:19:58.218Z,7.70
2023-04-23T06:22:26.012Z,5.45
2023-04-23T06:24:53.487Z,3.22
2023-04-23T06:27:20.796Z,3.63
2023-04-23T06:29:50.962Z,4.28
2023-04-23T06:32:20.533Z,3.58
2023-04-23T06:35:00.107Z,5.13
2023-04-23T06:37:32.107Z,1.98
2023-04-23T06:39:59.975Z,1.90
2023-04-23T06:42:27.515Z,2.08
2023-04-23T06:45:15.712Z,2.08
2023-04-23T06:47:43.202Z,2.20
2023-04-23T06:50:10.707Z,2.88
2023-04-23T06:52:38.252Z,1.80
2023-04-23T06:55:06.524Z,1.92
2023-04-23T06:57:34.077Z,3.42
2023-04-23T07:00:01.483Z,12.93
2023-04-23T07:02:35.827Z,4.32
2023-04-23T07:05:03.590Z,2.50
2023-04-23T07:07:32.820Z,1.63
2023-04-23T07:10:01.180Z,1.63
2023-04-23T07:12:31.425Z,2.13
2023-04-23T07:14:58.910Z,1.98
2023-04-23T07:17:26.406Z,1.30
2023-04-23T07:19:53.774Z,1.35
2023-04-23T07:22:21.162Z,1.98
2023-04-23T07:24:48.518Z,1.10
2023-04-23T07:27:15.866Z,2.47
2023-04-23T07:29:43.441Z,2.75
2023-04-23T07:32:10.954Z,2.10
2023-04-23T07:34:39.550Z,1.20
2023-04-23T07:37:07.223Z,1.08
2023-04-23T07:39:34.976Z,1.35
2023-04-23T07:42:02.439Z,2.20
2023-04-23T07:44:30.121Z,1.75
2023-04-23T07:46:57.581Z,2.45
2023-04-23T07:49:25.847Z,4.05
2023-04-23T07:51:53.724Z,2.13
2023-04-23T07:54:21.181Z,1.50
2023-04-23T07:56:48.640Z,1.55
2023-04-23T07:59:16.271Z,1.73
2023-04-23T08:01:43.636Z,1.27
2023-04-23T08:04:12.484Z,2.40
2023-04-23T08:06:40.027Z,1.30
2023-04-23T08:09:07.491Z,1.52
2023-04-23T08:11:34.984Z,1.60
2023-04-23T08:14:02.351Z,1.65
2023-04-23T08:16:30.932Z,2.58
2023-04-23T08:19:05.295Z,2.92
2023-04-23T08:21:35.106Z,3.75
2023-04-23T08:24:03.376Z,1.20
2023-04-23T08:26:31.776Z,2.00
2023-04-23T08:29:01.078Z,3.58
2023-04-23T08:31:28.812Z,1.10
2023-04-23T08:33:56.810Z,3.05
2023-04-23T08:36:24.890Z,1.77
2023-04-23T08:38:52.226Z,1.90
2023-04-23T08:41:23.679Z,1.27
2023-04-23T08:49:01.211Z,3.03
2023-04-23T08:51:32.816Z,2.20
2023-04-23T08:54:06.238Z,1.75
2023-04-23T08:56:33.959Z,2.08
2023-04-23T08:59:03.777Z,2.15
2023-04-23T09:01:31.319Z,1.52
2023-04-23T09:03:59.287Z,3.05
2023-04-23T09:06:27.167Z,2.92
2023-04-23T09:08:55.864Z,4.43
2023-04-23T09:11:24.864Z,1.35
2023-04-23T09:13:52.287Z,2.13
2023-04-23T09:16:19.787Z,1.65
2023-04-23T09:18:47.460Z,2.05
2023-04-23T09:21:14.822Z,2.13
2023-04-23T09:23:42.523Z,1.27
2023-04-23T09:26:10.046Z,2.20
2023-04-23T09:28:38.606Z,2.67
2023-04-23T09:31:06.633Z,2.67
2023-04-23T09:33:36.063Z,3.85
2023-04-23T09:36:12.433Z,3.67
2023-04-23T09:38:41.828Z,2.40
2023-04-23T09:41:27.314Z,2.00
2023-04-23T09:43:56.358Z,1.65
2023-04-23T09:46:43.716Z,1.83
2023-04-23T09:49:12.626Z,2.15
2023-04-23T09:51:41.512Z,3.90
2023-04-23T09:54:20.008Z,2.38
2023-04-23T09:56:54.024Z,2.95
2023-04-23T09:59:29.365Z,2.30
2023-04-23T10:02:03.061Z,2.80
2023-04-23T10:04:30.606Z,2.22
2023-04-23T10:07:17.176Z,2.28
2023-04-23T10:09:46.265Z,4.00
2023-04-23T10:14:46.954Z,1.42
2023-04-23T10:17:14.684Z,3.35
2023-04-23T10:19:43.850Z,1.63
2023-04-23T10:22:19.484Z,2.22
2023-04-23T10:24:52.618Z,3.13
2023-04-23T10:27:36.194Z,1.65
2023-04-23T10:30:10.856Z,1.85
2023-04-23T10:32:39.284Z,1.55
2023-04-23T10:35:08.268Z,3.42
2023-04-23T10:37:36.829Z,2.50
2023-04-23T10:40:11.742Z,1.67
2023-04-23T10:42:40.384Z,1.27
2023-04-23T10:45:23.348Z,4.43
2023-04-23T10:47:51.345Z,2.47
2023-04-23T10:50:29.914Z,1.40
2023-04-23T10:52:58.485Z,4.95
2023-04-23T10:55:28.406Z,2.53
2023-04-23T10:58:02.375Z,1.58
2023-04-23T11:00:46.693Z,3.75
2023-04-23T11:03:44.341Z,2.80
2023-04-23T11:06:16.606Z,1.27
2023-04-23T11:08:54.202Z,1.58
2023-04-23T11:11:39.950Z,1.83
2023-04-23T11:14:15.049Z,1.55
2023-04-23T11:16:42.902Z,2.45
2023-04-23T11:19:12.989Z,2.08
2023-04-23T11:22:04.853Z,2.28
2023-04-23T11:24:34.604Z,2.60
2023-04-23T11:27:03.070Z,3.03
2023-04-23T11:29:30.721Z,2.92
2023-04-23T11:32:02.679Z,1.60
2023-04-23T11:34:33.449Z,2.47
2023-04-23T11:37:01.518Z,1.98
2023-04-23T11:39:29.028Z,3.10
2023-04-23T11:41:57.401Z,1.38
2023-04-23T11:44:25.056Z,2.38
2023-04-23T11:46:52.399Z,2.40
2023-04-23T11:49:20.426Z,3.30
2023-04-23T11:51:48.858Z,1.77
2023-04-23T11:54:16.623Z,4.25
2023-04-23T11:56:45.384Z,3.17
2023-04-23T11:59:12.775Z,1.88
2023-04-23T12:01:42.099Z,2.13
2023-04-23T12:04:11.686Z,2.03
2023-04-23T12:06:41.313Z,1.70
2023-04-23T12:09:08.945Z,2.65
2023-04-23T12:11:36.612Z,2.65
2023-04-23T12:14:04.275Z,2.30
2023-04-23T12:16:42.315Z,8.68
2023-04-23T12:19:15.226Z,6.47
2023-04-23T12:27:01.215Z,2.22
2023-04-23T12:29:31.938Z,1.83
2023-04-23T12:32:00.714Z,4.78
2023-04-23T12:34:28.415Z,3.45
2023-04-23T12:36:57.898Z,3.47
2023-04-23T12:42:07.127Z,3.45
2023-04-23T12:44:35.960Z,4.15
2023-04-23T12:47:07.667Z,4.55
2023-04-23T12:49:36.950Z,3.15
2023-04-23T12:52:05.968Z,6.18
2023-04-23T12:54:37.984Z,5.97
2023-04-23T12:57:08.047Z,9.98
2023-04-23T12:59:35.565Z,6.03
2023-04-23T13:02:04.886Z,5.35
2023-04-23T13:04:34.057Z,6.90
2023-04-23T13:07:01.786Z,8.88
2023-04-23T13:09:30.419Z,10.90
2023-04-23T13:11:58.188Z,9.43
2023-04-23T13:14:25.608Z,13.35
2023-04-23T13:16:53.476Z,11.02
2023-04-23T13:19:21.024Z,10.80
2023-04-23T13:21:48.341Z,10.82
2023-04-23T13:24:15.759Z,11.23
2023-04-23T13:26:43.170Z,10.75
2023-04-23T13:29:10.897Z,10.60
2023-04-23T13:31:38.638Z,8.32
2023-04-23T13:34:06.032Z,12.23
2023-04-23T13:36:35.439Z,8.55
2023-04-23T13:39:05.209Z,10.23
2023-04-23T13:41:36.369Z,11.05
2023-04-23T13:44:07.247Z,14.38
2023-04-23T13:46:37.768Z,9.93
2023-04-23T13:49:10.253Z,10.95
2023-04-23T13:51:40.235Z,7.50
2023-04-23T13:54:14.732Z,8.40
2023-04-23T13:56:44.573Z,7.95
2023-04-23T13:59:20.035Z,6.95
2023-04-23T14:01:50.498Z,8.23
2023-04-23T14:04:21.638Z,9.20
2023-04-23T14:06:54.587Z,9.27
2023-04-23T14:09:24.346Z,11.45
2023-04-23T14:11:55.100Z,11.00
2023-04-23T14:14:33.148Z,10.30
2023-04-23T14:17:03.880Z,10.13
2023-04-23T14:19:36.866Z,9.43
2023-04-23T14:22:10.248Z,10.57
2023-04-23T14:24:47.924Z,7.78
2023-04-23T14:27:16.581Z,6.85
2023-04-23T14:35:08.086Z,7.75
2023-04-23T14:37:37.205Z,7.65
2023-04-23T14:40:14.742Z,8.27
2023-04-23T14:42:43.139Z,10.18
2023-04-23T14:45:13.780Z,6.18
2023-04-23T14:47:51.330Z,5.57
2023-04-23T14:50:22.241Z,5.28
2023-04-23T14:52:53.439Z,6.13
2023-04-23T14:55:22.462Z,6.28
2023-04-23T14:57:49.885Z,8.38
2023-04-23T15:00:18.422Z,5.05
2023-04-23T15:02:47.155Z,5.10
2023-04-23T15:05:17.187Z,4.82
2023-04-23T15:07:47.088Z,5.28
2023-04-23T15:10:34.240Z,4.53
2023-04-23T15:16:07.450Z,5.07
2023-04-23T15:18:53.924Z,4.95
2023-04-23T15:21:26.847Z,6.93
2023-04-23T15:23:56.516Z,8.02
2023-04-23T15:30:16.124Z,8.32
2023-04-23T15:32:43.492Z,7.68
2023-04-23T15:35:10.958Z,7.57
2023-04-23T15:37:38.258Z,6.82
2023-04-23T15:40:06.123Z,8.43
2023-04-23T15:42:33.473Z,7.22
2023-04-23T15:45:00.930Z,9.25
2023-04-23T15:47:28.348Z,9.40
2023-04-23T15:49:55.774Z,10.48
2023-04-23T15:52:23.149Z,11.95
2023-04-23T15:54:50.736Z,12.43
2023-04-23T15:57:19.225Z,13.82
2023-04-23T15:59:47.219Z,16.25
2023-04-23T16:02:14.831Z,15.63
2023-04-23T16:04:42.556Z,19.25
2023-04-23T16:07:10.674Z,15.85
2023-04-23T16:09:38.052Z,13.20
2023-04-23T16:12:05.592Z,14.82
2023-04-23T16:14:32.938Z,13.90
2023-04-23T16:17:00.394Z,12.48
2023-04-23T16:19:28.688Z,8.05
2023-04-23T16:21:56.208Z,10.55
2023-04-23T16:24:24.808Z,11.13
2023-04-23T16:26:52.114Z,11.82
2023-04-23T16:29:22.830Z,10.35
2023-04-23T16:31:50.764Z,12.48
2023-04-23T16:34:18.121Z,12.65
2023-04-23T16:36:45.651Z,12.80
2023-04-23T16:39:13.005Z,8.93
2023-04-23T16:41:40.350Z,16.42
2023-04-23T16:44:07.692Z,15.20
2023-04-23T16:46:35.463Z,17.75
2023-04-23T16:49:02.881Z,20.88
2023-04-23T16:51:30.510Z,25.73
2023-04-23T16:53:58.056Z,17.45
2023-04-23T16:56:25.600Z,20.70
2023-04-23T16:58:52.978Z,18.25
2023-04-23T17:01:20.546Z,13.85
2023-04-23T17:03:48.214Z,21.65
2023-04-23T17:06:27.324Z,18.52
2023-04-23T17:08:55.830Z,16.55
2023-04-23T17:11:23.296Z,13.85
2023-04-23T17:13:51.723Z,14.13
2023-04-23T17:16:19.268Z,13.52
2023-04-23T17:18:46.858Z,10.13
2023-04-23T17:21:14.701Z,8.70
2023-04-23T17:23:42.137Z,12.98
2023-04-23T17:26:09.806Z,12.43
2023-04-23T17:28:37.400Z,10.00
2023-04-23T17:31:04.900Z,9.50
2023-04-23T17:33:32.304Z,9.75
2023-04-23T17:35:59.728Z,13.65
2023-04-23T17:38:27.200Z,10.45
2023-04-23T17:40:55.068Z,8.55
2023-04-23T17:43:22.707Z,7.78
2023-04-23T17:45:50.122Z,23.77
2023-04-23T17:48:17.541Z,20.05
2023-04-23T17:50:45.195Z,24.70
2023-04-23T17:53:12.554Z,21.88
2023-04-23T17:55:39.909Z,26.60
2023-04-23T17:58:07.765Z,18.52
2023-04-23T18:00:37.653Z,16.13
2023-04-23T18:03:06.766Z,24.33
2023-04-23T18:05:34.601Z,15.85
2023-04-23T18:08:02.690Z,11.65
2023-04-23T18:10:30.172Z,13.85
2023-04-23T18:12:57.689Z,10.55
2023-04-23T18:15:25.997Z,9.50
2023-04-23T18:17:56.046Z,8.07
2023-04-23T18:20:25.066Z,7.18
2023-04-23T18:22:54.692Z,9.15
2023-04-23T18:25:22.429Z,8.52
2023-04-23T18:27:49.998Z,9.50
2023-04-23T18:30:18.045Z,6.82
2023-04-23T18:32:48.655Z,10.35
2023-04-23T18:35:16.196Z,9.13
2023-04-23T18:38:09.911Z,6.68
2023-04-23T18:40:53.083Z,8.77
2023-04-23T18:43:20.675Z,10.45
2023-04-23T18:45:48.142Z,9.93
2023-04-23T18:51:23.236Z,8.80
2023-04-23T18:53:50.837Z,8.23
2023-04-23T18:56:18.212Z,8.35
2023-04-23T18:58:45.557Z,8.57
2023-04-23T19:01:12.950Z,8.90
2023-04-23T19:03:40.537Z,8.63
2023-04-23T19:06:08.169Z,7.22
2023-04-23T19:08:36.189Z,8.88
2023-04-23T19:11:04.260Z,6.90
2023-04-23T19:13:31.660Z,10.00
2023-04-23T19:15:59.802Z,7.60
2023-04-23T19:18:28.012Z,10.73
2023-04-23T19:20:55.555Z,8.38
2023-04-23T19:23:23.106Z,8.95
2023-04-23T19:25:50.541Z,9.70
2023-04-23T19:28:18.114Z,7.70
2023-04-23T19:30:45.732Z,7.82
2023-04-23T19:33:13.121Z,7.10
2023-04-23T19:35:40.618Z,8.00
2023-04-23T19:38:08.619Z,11.93
2023-04-23T19:40:36.104Z,14.88
2023-04-23T19:43:03.841Z,17.75
2023-04-23T19:45:32.488Z,13.38
2023-04-23T19:48:00.333Z,19.38
2023-04-23T19:50:27.784Z,19.95
2023-04-23T19:52:55.189Z,22.30
2023-04-23T19:55:27.310Z,21.30
2023-04-23T19:57:55.356Z,21.15
2023-04-23T20:00:24.033Z,21.10
2023-04-23T20:02:53.017Z,24.45
2023-04-23T20:05:20.502Z,21.23
2023-04-23T20:07:48.192Z,20.95
2023-04-23T20:10:17.435Z,20.77
2023-04-23T20:12:45.069Z,18.40
2023-04-23T20:15:12.965Z,18.08
2023-04-23T20:17:40.547Z,14.00
2023-04-23T20:20:09.699Z,13.82
2023-04-23T20:22:37.103Z,13.85
2023-04-23T20:25:05.489Z,14.32
2023-04-23T20:27:34.256Z,11.35
2023-04-23T20:30:01.674Z,11.88
2023-04-23T20:32:32.733Z,14.85
2023-04-23T20:35:00.573Z,10.43
2023-04-23T20:37:28.695Z,9.70
2023-04-23T20:39:56.312Z,9.48
2023-04-23T20:42:25.798Z,12.50
2023-04-23T20:44:53.331Z,9.23
2023-04-23T20:47:20.794Z,9.93
2023-04-23T20:49:48.191Z,9.57
2023-04-23T20:52:15.635Z,10.15
2023-04-23T20:54:43.024Z,9.60
2023-04-23T20:57:11.140Z,10.20
2023-04-23T20:59:38.474Z,12.32
2023-04-23T21:02:07.541Z,9.82
2023-04-23T21:04:50.689Z,8.63
2023-04-23T21:07:18.250Z,10.88
2023-04-23T21:09:45.712Z,12.10
2023-04-23T21:12:13.237Z,12.05
2023-04-23T21:14:40.711Z,9.23
2023-04-23T21:17:09.699Z,9.88
2023-04-23T21:19:37.085Z,8.70
2023-04-23T21:22:04.398Z,8.88
2023-04-23T21:24:31.684Z,9.25
2023-04-23T21:26:59.054Z,11.70
2023-04-23T21:29:26.708Z,11.80
2023-04-23T21:31:54.111Z,8.98
2023-04-23T21:34:22.314Z,10.02
2023-04-23T21:36:50.093Z,12.68
2023-04-23T21:39:17.483Z,9.93
2023-04-23T21:41:45.756Z,11.60
2023-04-23T21:44:13.145Z,9.20
2023-04-23T21:46:41.391Z,9.80
2023-04-23T21:49:09.352Z,8.90
2023-04-23T21:51:37.262Z,9.18
2023-04-23T21:54:06.176Z,10.57
2023-04-23T21:56:34.363Z,8.70
2023-04-23T21:59:02.429Z,8.73
2023-04-23T22:01:30.123Z,8.50
2023-04-23T22:03:58.450Z,10.65
2023-04-23T22:06:26.084Z,8.35
2023-04-23T22:08:54.788Z,9.07
2023-04-23T22:11:22.832Z,7.88
2023-04-23T22:13:50.232Z,10.75
2023-04-23T22:16:27.332Z,10.65
2023-04-23T22:18:57.152Z,10.32
2023-04-23T22:21:24.665Z,9.23
2023-04-23T22:23:52.269Z,10.93
2023-04-23T22:26:19.625Z,10.75
2023-04-23T22:28:47.151Z,10.57
2023-04-23T22:31:14.539Z,8.80
2023-04-23T22:33:41.975Z,10.02
2023-04-23T22:36:09.347Z,9.07
2023-04-23T22:38:36.832Z,11.52
2023-04-23T22:41:04.210Z,10.90
2023-04-23T22:43:31.743Z,10.77
2023-04-23T22:45:59.166Z,10.63
2023-04-23T22:48:28.042Z,7.53
2023-04-23T22:50:55.345Z,12.43
2023-04-23T22:53:22.705Z,10.38
2023-04-23T22:55:50.095Z,8.75
2023-04-23T22:58:17.496Z,7.68
2023-04-23T23:00:44.910Z,6.63
2023-04-23T23:03:12.386Z,9.20
2023-04-23T23:05:39.808Z,12.82
2023-04-23T23:08:07.243Z,7.68
2023-04-23T23:10:34.688Z,9.15
2023-04-23T23:13:02.330Z,9.25
2023-04-23T23:15:29.923Z,7.38
2023-04-23T23:17:58.084Z,8.70
2023-04-23T23:20:25.834Z,9.02
2023-04-23T23:22:53.195Z,8.38
2023-04-23T23:25:20.770Z,10.07
2023-04-23T23:27:48.099Z,9.18
2023-04-23T23:30:15.932Z,9.95
2023-04-23T23:32:43.350Z,14.63
2023-04-23T23:35:10.760Z,7.93
2023-04-23T23:37:38.193Z,8.77
2023-04-23T23:40:06.202Z,6.68
2023-04-23T23:42:33.562Z,6.82
2023-04-23T23:45:00.948Z,9.32
2023-04-23T23:47:30.374Z,7.72
2023-04-23T23:49:57.834Z,8.40
2023-04-23T23:52:25.174Z,10.63
2023-04-23T23:54:52.449Z,7.68
2023-04-23T23:57:19.801Z,8.05
2023-04-23T23:59:47.276Z,9.18
